Terminal Aerodrome Forecast
Issued by NWS

Home | Current Version | Previous Version | Text Only | Print | Product List | Glossary On
Versions: 1 2 3 4 5 6 7 8 9 10 11 12 13 14 15 16 17 18 19 20 21 22 23
000
FTUS46 KPDT 311700
TAFDLS
TAF
KDLS 311720Z 3118/0118 VRB06KT P6SM OVC018
     FM312000 08007KT P6SM OVC025
     FM010400 VRB06KT P6SM OVC018
     FM011000 VRB06KT P6SM OVC012
      TEMPO 0110/0114 5SM BR OVC008=

USA.gov is the U.S. government's official web portal to all federal, state and local government web resources and services.